Time;durP1;ratioP1;P1;durP2;ratioP2;P2;SDS_P1;SDS_P2;PMS_P1;PMS_P2;Temp;Humidity;BMP_temperature;BMP_pressure;BME280_temperature;BME280_humidity;BME280_pressure;Samples;Min_cycle;Max_cycle;Signal;HPM_P1;HPM_P2
2021/10/12 00:02:18;;;;;;;8.87;4.50;;;;;;;10.51;79.84;101453.91;5043557;28;20259;-66
2021/10/12 00:04:43;;;;;;;9.30;4.10;;;;;;;10.32;80.47;101456.06;5061562;28;20169;-66
2021/10/12 00:07:09;;;;;;;5.47;3.27;;;;;;;10.23;81.06;101461.97;5061059;28;20496;-66
2021/10/12 00:09:35;;;;;;;8.67;4.07;;;;;;;10.42;80.11;101455.47;5062778;28;20177;-67
2021/10/12 00:12:00;;;;;;;6.13;4.17;;;;;;;10.70;79.53;101448.25;5061900;28;20170;-66
2021/10/12 00:14:25;;;;;;;6.37;3.50;;;;;;;10.34;80.03;101446.56;5061654;28;20174;-66
2021/10/12 00:16:52;;;;;;;7.20;3.80;;;;;;;10.60;79.94;101448.88;5043366;28;20445;-66
2021/10/12 00:19:17;;;;;;;12.13;4.10;;;;;;;10.55;79.99;101442.69;5061212;28;20189;-66
2021/10/12 00:21:42;;;;;;;4.47;3.70;;;;;;;10.55;80.32;101454.00;5060561;28;20471;-67
2021/10/12 00:24:09;;;;;;;7.50;3.70;;;;;;;10.77;80.23;101470.97;5060531;28;20177;-66
2021/10/12 00:26:34;;;;;;;10.63;3.67;;;;;;;10.41;81.52;101471.06;5061209;28;20187;-66
2021/10/12 00:29:00;;;;;;;6.27;4.10;;;;;;;10.49;81.84;101466.03;5060163;28;20674;-66
2021/10/12 00:31:25;;;;;;;8.00;3.63;;;;;;;10.63;81.32;101469.78;5060412;28;20173;-66
2021/10/12 00:33:50;;;;;;;6.17;3.73;;;;;;;10.58;81.75;101464.50;5060999;28;20170;-66
2021/10/12 00:36:16;;;;;;;7.57;3.80;;;;;;;10.88;80.16;101462.47;5060279;28;20220;-67
2021/10/12 00:38:41;;;;;;;5.80;3.40;;;;;;;10.77;80.50;101462.25;5060314;28;20174;-66
2021/10/12 00:41:07;;;;;;;7.30;4.07;;;;;;;10.69;80.52;101451.69;5060471;28;20220;-66
2021/10/12 00:43:34;;;;;;;10.63;3.73;;;;;;;10.74;81.48;101450.06;5060152;28;20173;-68
2021/10/12 00:45:59;;;;;;;7.33;3.73;;;;;;;10.87;80.49;101450.31;5060117;28;20447;-65
2021/10/12 00:48:25;;;;;;;7.40;3.57;;;;;;;10.56;81.86;101458.34;5060549;28;20781;-67
2021/10/12 00:50:50;;;;;;;12.80;4.27;;;;;;;10.36;82.60;101444.03;5059958;28;20204;-66
2021/10/12 00:53:15;;;;;;;8.73;4.20;;;;;;;10.79;80.75;101448.41;5059863;28;20221;-66
2021/10/12 00:55:41;;;;;;;8.70;4.20;;;;;;;10.68;81.96;101462.97;5060592;28;20170;-66
2021/10/12 00:58:13;;;;;;;8.13;4.63;;;;;;;10.52;82.64;101468.69;5060093;28;20197;-66
2021/10/12 01:00:39;;;;;;;6.80;4.10;;;;;;;10.86;80.95;101472.00;5059900;28;20177;-66
2021/10/12 01:03:04;;;;;;;7.70;4.00;;;;;;;10.36;82.44;101477.91;5043060;28;20871;-67
2021/10/12 01:05:30;;;;;;;7.20;4.73;;;;;;;10.64;81.36;101473.31;5059953;28;20189;-66
2021/10/12 01:07:55;;;;;;;9.53;4.93;;;;;;;10.83;80.84;101456.31;5042371;28;20174;-66
2021/10/12 01:10:20;;;;;;;9.97;5.00;;;;;;;10.80;81.35;101454.50;5060195;28;20204;-66
2021/10/12 01:12:46;;;;;;;5.87;5.30;;;;;;;11.06;80.22;101449.78;5059682;28;20213;-66
2021/10/12 01:15:11;;;;;;;5.50;4.93;;;;;;;11.03;79.88;101444.53;5059834;28;20547;-66
2021/10/12 01:17:37;;;;;;;6.20;4.60;;;;;;;10.87;80.96;101448.56;5060163;28;20250;-66
2021/10/12 01:20:04;;;;;;;7.20;4.67;;;;;;;10.75;81.23;101441.38;5059481;28;20185;-66
2021/10/12 01:22:29;;;;;;;5.50;4.83;;;;;;;11.03;81.03;101434.09;5059415;28;20806;-66
2021/10/12 01:24:54;;;;;;;6.37;4.80;;;;;;;11.00;80.19;101431.44;5043373;28;20474;-66
2021/10/12 01:27:22;;;;;;;5.23;4.37;;;;;;;10.81;81.28;101426.69;5059670;28;20188;-67
2021/10/12 01:29:47;;;;;;;8.13;5.00;;;;;;;11.02;80.76;101426.25;5059676;28;20181;-66
2021/10/12 01:32:12;;;;;;;4.47;4.07;;;;;;;10.80;81.37;101436.25;5046706;28;20382;-66
2021/10/12 01:34:37;;;;;;;5.63;4.07;;;;;;;11.01;80.94;101429.69;5061856;28;20165;-67
2021/10/12 01:37:03;;;;;;;9.80;4.37;;;;;;;10.80;81.96;101428.44;5043214;28;20189;-66
2021/10/12 01:39:28;;;;;;;7.13;4.57;;;;;;;10.88;81.78;101425.94;5059837;28;20201;-66
2021/10/12 01:41:53;;;;;;;6.27;4.10;;;;;;;10.90;81.71;101432.09;5042552;28;20266;-67
2021/10/12 01:44:18;;;;;;;5.10;4.40;;;;;;;10.73;82.29;101427.44;5060139;28;20181;-66
2021/10/12 01:46:44;;;;;;;4.37;3.90;;;;;;;10.77;82.29;101424.03;5043086;28;20185;-67
2021/10/12 01:49:09;;;;;;;6.37;4.90;;;;;;;11.06;81.96;101415.00;5059221;28;20196;-66
2021/10/12 01:51:36;;;;;;;5.03;4.07;;;;;;;10.69;82.52;101409.06;5058812;28;20494;-66
2021/10/12 01:54:02;;;;;;;6.87;4.63;;;;;;;11.00;81.54;101394.00;5042400;28;20177;-67
2021/10/12 01:56:28;;;;;;;5.77;4.20;;;;;;;10.68;81.72;101376.91;5059221;28;20517;-67
2021/10/12 01:58:54;;;;;;;4.13;3.43;;;;;;;11.06;80.96;101376.72;5059019;28;20408;-67
2021/10/12 02:01:24;;;;;;;6.37;4.53;;;;;;;11.17;79.61;101370.84;5058972;28;20433;-67
2021/10/12 02:03:50;;;;;;;5.93;4.23;;;;;;;11.26;79.37;101366.66;5041463;28;20188;-66
2021/10/12 02:06:16;;;;;;;4.17;3.70;;;;;;;11.03;80.28;101366.25;5058776;28;20424;-66
2021/10/12 02:08:41;;;;;;;6.03;3.73;;;;;;;11.15;79.55;101356.88;5059309;28;20678;-67
2021/10/12 02:11:07;;;;;;;4.23;3.27;;;;;;;11.00;80.02;101347.94;5041203;28;20227;-66
2021/10/12 02:13:32;;;;;;;7.97;3.30;;;;;;;10.72;81.76;101334.38;5058938;28;20180;-66
2021/10/12 02:15:57;;;;;;;3.90;3.30;;;;;;;10.73;80.78;101327.44;5059075;28;20461;-66
2021/10/12 02:18:22;;;;;;;4.10;3.30;;;;;;;10.98;80.82;101317.47;5058776;28;20492;-66
2021/10/12 02:20:49;;;;;;;7.90;3.63;;;;;;;10.79;81.62;101315.38;5058359;28;20177;-67
2021/10/12 02:23:14;;;;;;;5.83;4.00;;;;;;;10.99;80.88;101306.16;5059449;28;20229;-66
2021/10/12 02:25:40;;;;;;;8.10;4.27;;;;;;;10.67;82.60;101315.16;5058503;28;20713;-66
2021/10/12 02:28:05;;;;;;;7.30;5.23;;;;;;;10.57;82.58;101315.88;5058452;28;20185;-66
2021/10/12 02:30:30;;;;;;;6.37;4.50;;;;;;;10.67;82.21;101307.34;5058700;28;20569;-66
2021/10/12 02:32:55;;;;;;;4.80;4.40;;;;;;;10.74;81.88;101306.63;5058553;28;20185;-67
2021/10/12 02:35:21;;;;;;;5.20;4.67;;;;;;;10.53;83.16;101308.84;5058415;28;20203;-66
2021/10/12 02:37:46;;;;;;;7.70;4.60;;;;;;;10.47;83.11;101304.34;5058795;28;20172;-66
2021/10/12 02:40:11;;;;;;;5.63;4.70;;;;;;;10.51;82.86;101307.91;5058250;28;20538;-66
2021/10/12 02:42:37;;;;;;;7.57;5.43;;;;;;;10.60;82.51;101295.91;5058298;28;20208;-67
2021/10/12 02:45:02;;;;;;;5.57;4.20;;;;;;;10.31;82.95;101297.97;5058645;28;20197;-67
2021/10/12 02:47:28;;;;;;;5.10;4.60;;;;;;;10.20;83.39;101292.53;5058571;28;20199;-66
2021/10/12 02:49:53;;;;;;;4.10;3.60;;;;;;;10.16;83.59;101289.81;5061600;28;20172;-68
2021/10/12 02:52:18;;;;;;;5.73;3.87;;;;;;;10.27;83.39;101283.13;5060167;28;20270;-66
2021/10/12 02:54:44;;;;;;;4.20;3.20;;;;;;;10.28;83.18;101290.97;5043743;28;20531;-66
2021/10/12 02:57:10;;;;;;;3.37;3.07;;;;;;;10.29;83.20;101295.28;5058180;28;20200;-65
2021/10/12 02:59:35;;;;;;;3.27;2.97;;;;;;;10.22;83.23;101292.56;5057994;28;20443;-66
2021/10/12 03:02:00;;;;;;;4.43;3.20;;;;;;;10.42;81.93;101287.78;5040488;28;20220;-66
2021/10/12 03:04:25;;;;;;;2.57;2.37;;;;;;;10.14;82.17;101287.19;5058702;28;20491;-66
2021/10/12 03:06:51;;;;;;;3.67;2.70;;;;;;;10.05;82.63;101285.28;5040714;28;20213;-66
2021/10/12 03:09:16;;;;;;;3.30;3.00;;;;;;;10.33;82.23;101284.94;5058262;28;20173;-66
2021/10/12 03:11:41;;;;;;;3.40;2.37;;;;;;;10.11;82.50;101279.31;5058443;28;20162;-66
2021/10/12 03:14:07;;;;;;;3.33;3.03;;;;;;;10.32;82.30;101288.41;5058102;28;20555;-66
2021/10/12 03:16:32;;;;;;;2.70;2.30;;;;;;;10.42;81.80;101286.03;5058101;28;20166;-67
2021/10/12 03:18:57;;;;;;;3.33;2.90;;;;;;;10.56;80.92;101281.06;5058504;28;20539;-66
2021/10/12 03:21:24;;;;;;;3.43;2.30;;;;;;;10.30;81.36;101280.56;5057944;28;20247;-67
2021/10/12 03:23:49;;;;;;;3.77;2.13;;;;;;;10.03;82.33;101267.88;5058031;28;20174;-67
2021/10/12 03:26:14;;;;;;;2.33;2.13;;;;;;;10.32;81.52;101270.16;5058386;28;20851;-66
2021/10/12 03:28:40;;;;;;;2.60;2.37;;;;;;;10.40;81.44;101266.00;5057772;28;20185;-66
2021/10/12 03:31:05;;;;;;;2.87;2.67;;;;;;;10.39;81.10;101259.03;5057699;28;20174;-66
2021/10/12 03:33:30;;;;;;;3.30;2.47;;;;;;;10.50;81.16;101262.72;5058362;28;20425;-66
2021/10/12 03:35:57;;;;;;;3.20;2.03;;;;;;;10.23;81.49;101265.66;5057652;28;20170;-66
2021/10/12 03:38:24;;;;;;;2.50;2.20;;;;;;;10.30;81.25;101257.09;5057708;28;20169;-67
2021/10/12 03:40:50;;;;;;;2.93;2.60;;;;;;;10.34;81.39;101245.88;5057858;28;20557;-68
2021/10/12 03:43:16;;;;;;;7.07;3.20;;;;;;;10.14;82.25;101245.50;5057586;28;20378;-67
2021/10/12 03:45:41;;;;;;;5.70;3.70;;;;;;;10.03;82.21;101229.66;5057626;28;20264;-67
2021/10/12 03:48:06;;;;;;;2.73;2.50;;;;;;;10.10;81.80;101231.53;5058201;28;20454;-68
2021/10/12 03:50:32;;;;;;;5.37;3.03;;;;;;;9.97;82.71;101233.88;5057417;28;20202;-67
2021/10/12 03:52:57;;;;;;;3.77;3.47;;;;;;;10.27;81.53;101236.22;5057351;28;20218;-68
2021/10/12 03:55:24;;;;;;;2.50;2.30;;;;;;;9.99;82.33;101235.66;5057989;28;20570;-67
2021/10/12 03:57:49;;;;;;;6.67;3.43;;;;;;;10.26;81.35;101237.91;5057491;28;20174;-66
2021/10/12 04:00:14;;;;;;;3.50;2.07;;;;;;;9.88;83.65;101238.03;5057286;28;20422;-66
2021/10/12 04:02:40;;;;;;;3.60;2.70;;;;;;;9.96;82.69;101238.22;5057831;28;20206;-66
2021/10/12 04:05:05;;;;;;;2.73;2.50;;;;;;;9.89;83.85;101241.50;5061190;28;20197;-66
2021/10/12 04:07:31;;;;;;;2.30;2.10;;;;;;;10.14;82.83;101242.03;5061010;28;20209;-67
2021/10/12 04:09:56;;;;;;;3.00;2.40;;;;;;;10.03;82.41;101229.66;5061522;28;20165;-66
2021/10/12 04:12:21;;;;;;;4.33;2.77;;;;;;;9.75;83.75;101225.63;5061008;28;20212;-66
2021/10/12 04:14:47;;;;;;;5.07;3.00;;;;;;;10.15;82.68;101223.81;5060706;28;20193;-66
2021/10/12 04:17:12;;;;;;;4.17;3.77;;;;;;;10.09;83.13;101219.38;5061269;28;20166;-66
2021/10/12 04:19:37;;;;;;;5.90;3.10;;;;;;;9.99;83.83;101225.25;5060765;28;20201;-66
2021/10/12 04:22:03;;;;;;;5.90;4.77;;;;;;;10.21;82.42;101212.63;5060654;28;20247;-66
2021/10/12 04:24:28;;;;;;;5.07;2.73;;;;;;;10.00;82.71;101219.19;5061281;28;20182;-66
2021/10/12 04:26:55;;;;;;;5.70;2.90;;;;;;;10.19;82.64;101211.72;5060643;28;20184;-67
2021/10/12 04:29:21;;;;;;;4.40;3.83;;;;;;;10.23;82.10;101205.72;5060717;28;20433;-66
2021/10/12 04:31:46;;;;;;;5.73;4.50;;;;;;;10.35;82.05;101215.50;5060881;28;20397;-67
2021/10/12 04:34:11;;;;;;;7.73;5.70;;;;;;;10.39;81.47;101215.63;5060609;28;20184;-66
2021/10/12 04:36:36;;;;;;;3.30;3.00;;;;;;;10.04;82.68;101207.97;5060666;28;20172;-66
2021/10/12 04:39:03;;;;;;;5.60;3.50;;;;;;;10.06;82.65;101214.06;5061032;28;20438;-66
2021/10/12 04:41:28;;;;;;;3.40;2.93;;;;;;;10.14;82.22;101209.03;5060178;28;20417;-66
2021/10/12 04:43:53;;;;;;;4.83;3.13;;;;;;;9.73;84.21;101209.97;5060236;28;20412;-66
2021/10/12 04:46:19;;;;;;;8.17;5.07;;;;;;;10.13;82.50;101209.00;5060585;28;20215;-67
2021/10/12 04:48:44;;;;;;;3.87;3.57;;;;;;;10.19;83.17;101210.00;5060200;28;20166;-67
2021/10/12 04:51:09;;;;;;;4.13;3.70;;;;;;;10.31;82.63;101208.47;5043073;28;20479;-67
2021/10/12 04:53:35;;;;;;;6.83;4.13;;;;;;;10.23;82.84;101206.59;5060522;28;20177;-66
2021/10/12 04:56:00;;;;;;;5.17;4.57;;;;;;;9.98;83.68;101199.16;5060136;28;20208;-66
2021/10/12 04:58:25;;;;;;;5.70;5.23;;;;;;;10.03;83.46;101203.59;5060086;28;20535;-66
2021/10/12 05:00:51;;;;;;;8.20;5.53;;;;;;;10.02;83.38;101209.66;5060438;28;20181;-66
2021/10/12 05:03:16;;;;;;;6.63;5.60;;;;;;;9.98;83.67;101204.38;5059919;28;20489;-66
2021/10/12 05:05:41;;;;;;;5.17;4.70;;;;;;;10.09;83.39;101203.75;5042649;28;20425;-66
2021/10/12 05:08:07;;;;;;;8.43;6.30;;;;;;;10.17;83.63;101196.03;5060514;28;20179;-66
2021/10/12 05:10:32;;;;;;;5.40;4.90;;;;;;;9.96;84.00;101199.16;5059667;28;20188;-66
2021/10/12 05:12:57;;;;;;;7.90;5.50;;;;;;;9.88;85.25;101211.13;5059775;28;20173;-67
2021/10/12 05:15:25;;;;;;;6.73;5.17;;;;;;;9.74;85.26;101203.91;5060196;28;20402;-66
2021/10/12 05:17:51;;;;;;;6.37;5.67;;;;;;;9.92;84.68;101202.53;5059812;28;20212;-67
2021/10/12 05:20:16;;;;;;;5.80;5.23;;;;;;;10.13;83.85;101202.06;5059472;28;20831;-66
2021/10/12 05:22:43;;;;;;;7.43;6.50;;;;;;;10.18;83.63;101199.56;5043022;28;20190;-65
2021/10/12 05:25:08;;;;;;;9.53;6.07;;;;;;;9.87;85.02;101201.56;5059440;28;20212;-66
2021/10/12 05:27:36;;;;;;;9.90;6.53;;;;;;;10.08;84.01;101199.38;5061755;28;20712;-68
2021/10/12 05:30:03;;;;;;;7.47;6.70;;;;;;;10.01;84.84;101200.13;5061880;28;20177;-67
2021/10/12 05:32:29;;;;;;;8.40;7.43;;;;;;;9.97;84.33;101203.47;5062911;28;20430;-66
2021/10/12 05:34:57;;;;;;;10.57;7.80;;;;;;;10.14;84.37;101206.41;5042181;28;20805;-67
2021/10/12 05:37:22;;;;;;;7.80;6.67;;;;;;;9.69;85.96;101208.16;5042721;28;20430;-67
2021/10/12 05:39:47;;;;;;;8.50;7.40;;;;;;;10.16;84.27;101207.34;5059328;28;20391;-67
2021/10/12 05:42:13;;;;;;;8.80;6.97;;;;;;;10.04;84.83;101207.97;5059132;28;20205;-66
2021/10/12 05:44:38;;;;;;;8.40;6.80;;;;;;;9.97;85.16;101208.69;5059539;28;20544;-66
2021/10/12 05:47:03;;;;;;;8.40;7.60;;;;;;;9.83;85.74;101198.00;5059197;28;20196;-66
2021/10/12 05:49:29;;;;;;;9.13;7.40;;;;;;;10.02;84.47;101196.63;5059160;28;20181;-66
2021/10/12 05:51:54;;;;;;;10.43;8.13;;;;;;;9.87;85.95;101202.44;5059040;28;20625;-66
2021/10/12 05:54:22;;;;;;;9.50;7.63;;;;;;;10.00;84.75;101200.97;5059086;28;20178;-66
2021/10/12 05:57:04;;;;;;;8.23;7.13;;;;;;;10.22;84.23;101203.97;5059107;28;20177;-66
2021/10/12 05:59:30;;;;;;;8.30;7.50;;;;;;;10.55;83.41;101195.00;5059140;28;20432;-66
2021/10/12 06:01:55;;;;;;;10.03;6.80;;;;;;;10.50;82.88;101213.19;5058768;28;20438;-67
2021/10/12 06:04:20;;;;;;;8.70;6.67;;;;;;;10.50;81.95;101212.28;5058978;28;20173;-66
2021/10/12 06:06:45;;;;;;;7.87;5.90;;;;;;;10.60;81.64;101206.41;5058855;28;20231;-66
2021/10/12 06:09:11;;;;;;;11.50;7.87;;;;;;;10.76;82.28;101218.84;5059395;28;20257;-66
2021/10/12 06:11:36;;;;;;;7.30;6.20;;;;;;;10.78;80.99;101209.31;5058491;28;20197;-66
2021/10/12 06:14:02;;;;;;;6.63;5.60;;;;;;;10.74;80.70;101217.06;5058577;28;20304;-66
2021/10/12 06:16:27;;;;;;;5.80;5.20;;;;;;;10.67;80.93;101217.81;5041891;28;20208;-66
2021/10/12 06:18:52;;;;;;;7.80;4.70;;;;;;;10.59;80.86;101220.28;5058853;28;20193;-66
2021/10/12 06:21:17;;;;;;;6.10;5.10;;;;;;;10.37;80.74;101229.47;5058300;28;20213;-66
2021/10/12 06:23:43;;;;;;;6.17;4.43;;;;;;;10.34;81.38;101232.00;5059126;28;20169;-67
2021/10/12 06:26:08;;;;;;;6.23;4.97;;;;;;;10.48;80.70;101221.84;5058032;28;20178;-66
2021/10/12 06:28:34;;;;;;;8.50;4.97;;;;;;;10.61;79.91;101223.81;5058596;28;20596;-66
2021/10/12 06:30:59;;;;;;;5.73;4.10;;;;;;;10.54;80.02;101228.03;5058723;28;20244;-67
2021/10/12 06:33:25;;;;;;;5.33;3.53;;;;;;;10.80;78.88;101222.38;5058392;28;20436;-66
2021/10/12 06:35:50;;;;;;;4.53;3.90;;;;;;;11.03;78.08;101233.19;5058684;28;20177;-66
2021/10/12 06:38:15;;;;;;;6.27;3.93;;;;;;;10.75;78.39;101231.84;5058741;28;20197;-66
2021/10/12 06:40:41;;;;;;;5.60;3.77;;;;;;;11.21;77.22;101231.72;5040877;28;20192;-66
2021/10/12 06:43:06;;;;;;;5.30;3.60;;;;;;;12.20;73.06;101233.00;5058167;28;20223;-66
2021/10/12 06:45:32;;;;;;;5.20;3.67;;;;;;;13.62;68.15;101223.69;5058470;28;20180;-66
2021/10/12 06:47:57;;;;;;;5.13;3.20;;;;;;;14.76;63.45;101216.13;5058075;28;20169;-66
2021/10/12 06:50:23;;;;;;;5.77;3.90;;;;;;;15.78;60.17;101218.53;5057850;28;20173;-66
2021/10/12 06:52:49;;;;;;;4.33;3.50;;;;;;;16.40;57.38;101218.22;5058017;28;20256;-67
2021/10/12 06:55:15;;;;;;;3.73;2.90;;;;;;;16.35;57.26;101224.41;5058083;28;20467;-67
2021/10/12 06:57:41;;;;;;;3.30;2.80;;;;;;;16.53;56.28;101224.25;5058204;28;20169;-66
2021/10/12 07:00:08;;;;;;;3.40;3.07;;;;;;;16.58;55.58;101227.75;5057784;28;20464;-67
2021/10/12 07:02:34;;;;;;;4.03;2.50;;;;;;;16.28;56.39;101231.47;5057821;28;20473;-66
2021/10/12 07:04:59;;;;;;;3.10;2.80;;;;;;;16.93;54.97;101234.50;5058317;28;20730;-66
2021/10/12 07:07:24;;;;;;;4.20;3.23;;;;;;;16.37;56.72;101236.66;5057996;28;20463;-66
2021/10/12 07:09:50;;;;;;;5.33;3.00;;;;;;;17.14;53.92;101232.56;5057728;28;20220;-66
2021/10/12 07:12:15;;;;;;;4.10;2.77;;;;;;;17.90;52.11;101226.44;5058290;28;20170;-67
2021/10/12 07:14:40;;;;;;;4.37;3.87;;;;;;;17.56;51.82;101225.06;5058110;28;20185;-66
2021/10/12 07:17:06;;;;;;;4.50;3.67;;;;;;;18.13;50.79;101234.97;5057789;28;20184;-67
2021/10/12 07:19:31;;;;;;;10.57;6.60;;;;;;;18.06;50.60;101233.28;5040880;28;20193;-66
2021/10/12 07:21:56;;;;;;;4.80;3.30;;;;;;;18.07;48.74;101237.66;5057481;28;20300;-67
2021/10/12 07:24:22;;;;;;;8.50;5.27;;;;;;;19.11;47.91;101231.66;5057728;28;20264;-67
2021/10/12 07:26:48;;;;;;;4.07;3.30;;;;;;;17.72;50.02;101233.69;5052747;28;20166;-66
2021/10/12 07:29:14;;;;;;;3.40;2.90;;;;;;;17.67;50.11;101239.03;5038643;28;20619;-66
2021/10/12 07:31:39;;;;;;;4.67;2.70;;;;;;;18.77;48.84;101226.09;5049312;28;20534;-65
2021/10/12 07:34:06;;;;;;;4.50;3.00;;;;;;;18.89;46.52;101227.66;5040822;28;20216;-67
2021/10/12 07:36:31;;;;;;;3.17;2.73;;;;;;;18.85;46.58;101232.09;5040632;28;20175;-69
2021/10/12 07:38:57;;;;;;;3.20;2.43;;;;;;;18.46;47.65;101224.78;5039405;28;20417;-69
2021/10/12 07:41:22;;;;;;;5.50;2.70;;;;;;;18.97;45.83;101224.00;5041767;28;20225;-68
2021/10/12 07:43:47;;;;;;;5.00;3.20;;;;;;;19.00;45.49;101228.38;5047797;28;20300;-68
2021/10/12 07:46:13;;;;;;;3.10;2.80;;;;;;;19.05;45.70;101225.63;5061400;28;20260;-66
2021/10/12 07:48:38;;;;;;;4.80;2.90;;;;;;;19.58;45.10;101225.50;5061527;28;20184;-67
2021/10/12 07:51:03;;;;;;;6.63;2.97;;;;;;;19.29;44.41;101238.38;5060935;28;20174;-67
2021/10/12 07:53:32;;;;;;;3.97;3.17;;;;;;;19.17;45.29;101223.66;5061137;28;20220;-67
2021/10/12 07:55:59;;;;;;;4.50;3.50;;;;;;;19.02;45.48;101223.91;5061613;28;20579;-67
2021/10/12 07:58:25;;;;;;;5.13;3.20;;;;;;;19.87;43.41;101235.53;5061102;28;20693;-67
2021/10/12 08:00:50;;;;;;;3.07;2.77;;;;;;;18.90;43.80;101239.97;5054664;28;20523;-67
2021/10/12 08:03:17;;;;;;;4.93;2.93;;;;;;;20.24;41.49;101231.19;5041543;28;20442;-67
2021/10/12 08:05:42;;;;;;;5.60;3.63;;;;;;;20.51;41.04;101232.31;5043944;28;20166;-68
2021/10/12 08:08:07;;;;;;;7.00;3.33;;;;;;;20.13;42.15;101232.31;5043361;28;20413;-66
2021/10/12 08:10:34;;;;;;;7.60;2.70;;;;;;;18.92;43.31;101238.19;5041890;28;20180;-68
2021/10/12 08:13:05;;;;;;;11.93;4.50;;;;;;;19.61;41.38;101228.09;5040776;28;20174;-66
2021/10/12 08:15:31;;;;;;;20.77;18.33;;;;;;;19.76;40.96;101237.50;5040838;28;20686;-67
2021/10/12 08:17:56;;;;;;;18.87;13.00;;;;;;;20.52;39.73;101223.47;5040549;28;20413;-66
2021/10/12 08:20:22;;;;;;;5.33;3.90;;;;;;;19.42;42.39;101239.03;5040717;28;20449;-66
2021/10/12 08:22:47;;;;;;;4.53;3.10;;;;;;;20.07;40.06;101227.16;5040500;28;20228;-66
2021/10/12 08:25:13;;;;;;;2.97;2.60;;;;;;;20.10;40.54;101228.88;5041124;28;20171;-66
2021/10/12 08:27:39;;;;;;;6.57;3.23;;;;;;;20.80;38.22;101226.34;5040729;28;20252;-66
2021/10/12 08:30:06;;;;;;;5.53;3.20;;;;;;;20.52;40.00;101229.63;5040517;28;20177;-66
2021/10/12 08:32:32;;;;;;;4.53;2.80;;;;;;;20.83;37.64;101230.69;5040089;28;20499;-66
2021/10/12 08:34:57;;;;;;;4.30;2.70;;;;;;;20.45;37.70;101228.03;5046576;28;20694;-68
2021/10/12 08:37:22;;;;;;;7.67;2.63;;;;;;;19.77;37.69;101231.28;5043063;28;20184;-66
2021/10/12 08:39:48;;;;;;;4.23;2.70;;;;;;;20.99;37.32;101224.09;5060889;28;20538;-69
2021/10/12 08:42:22;;;;;;;5.47;3.20;;;;;;;19.99;38.73;101218.50;5060248;28;20320;-70
2021/10/12 08:44:55;;;;;;;6.13;2.80;;;;;;;19.51;38.87;101227.38;5043094;28;20217;-69
2021/10/12 08:47:24;;;;;;;3.90;2.80;;;;;;;19.65;38.79;101216.56;5043061;28;20514;-68
2021/10/12 08:49:53;;;;;;;2.80;2.50;;;;;;;19.10;39.54;101221.13;5036035;28;20567;-69
2021/10/12 08:52:20;;;;;;;7.07;3.00;;;;;;;20.00;38.70;101222.91;5059667;28;20479;-69
2021/10/12 08:54:47;;;;;;;4.23;2.53;;;;;;;18.46;40.13;101224.78;5060146;28;20430;-70
2021/10/12 08:57:28;;;;;;;4.73;2.80;;;;;;;20.46;37.35;101219.19;5060225;28;20428;-68
2021/10/12 08:59:56;;;;;;;6.00;3.10;;;;;;;20.02;38.47;101229.91;5060076;28;20459;-69
2021/10/12 09:02:26;;;;;;;4.97;3.10;;;;;;;20.51;37.16;101222.63;5059791;28;20460;-70
2021/10/12 09:04:51;;;;;;;4.60;3.10;;;;;;;20.79;37.12;101221.94;5059794;28;20809;-70
2021/10/12 09:07:24;;;;;;;5.23;3.17;;;;;;;20.84;36.80;101220.06;5059710;28;20477;-68
2021/10/12 09:09:51;;;;;;;5.70;3.17;;;;;;;20.64;36.95;101222.31;5059915;28;20169;-69
2021/10/12 09:12:17;;;;;;;4.37;2.83;;;;;;;20.39;37.26;101220.25;5059654;28;20516;-68
2021/10/12 09:14:57;;;;;;;4.30;2.77;;;;;;;20.87;36.14;101216.47;5059982;28;20444;-70
2021/10/12 09:17:37;;;;;;;7.93;2.77;;;;;;;20.45;37.58;101213.94;5059803;28;20193;-67
2021/10/12 09:20:11;;;;;;;6.17;2.90;;;;;;;21.67;34.97;101216.09;5059442;28;20510;-67
2021/10/12 09:22:38;;;;;;;3.30;2.83;;;;;;;20.72;35.91;101225.66;5059571;28;20454;-67
2021/10/12 09:25:08;;;;;;;4.27;3.07;;;;;;;19.75;37.83;101228.66;5059345;28;20477;-67
2021/10/12 09:27:54;;;;;;;4.97;2.87;;;;;;;20.90;35.84;101212.88;5059450;28;20423;-67
2021/10/12 09:30:29;;;;;;;5.37;3.10;;;;;;;20.13;41.20;101223.50;5059171;28;20404;-66
2021/10/12 09:33:20;;;;;;;5.40;2.87;;;;;;;20.95;37.03;101210.97;5059310;28;20426;-65
2021/10/12 09:35:46;;;;;;;6.83;2.90;;;;;;;20.42;39.17;101220.19;5055201;28;20778;-64
2021/10/12 09:38:12;;;;;;;5.83;3.00;;;;;;;21.82;41.44;101207.66;5041722;28;20428;-64
2021/10/12 09:40:40;;;;;;;4.07;2.60;;;;;;;20.75;37.75;101207.03;5058949;28;20266;-65
2021/10/12 09:43:06;;;;;;;8.40;2.93;;;;;;;20.73;36.47;101211.53;5059208;28;20455;-69
2021/10/12 09:45:35;;;;;;;8.83;3.30;;;;;;;21.57;37.23;101207.53;5059025;28;20687;-69
2021/10/12 09:48:01;;;;;;;6.20;2.60;;;;;;;20.59;36.43;101205.66;5058865;28;20267;-64
2021/10/12 09:50:33;;;;;;;14.63;3.67;;;;;;;19.69;40.00;101215.59;5059217;28;20435;-67
2021/10/12 09:52:58;;;;;;;11.10;3.03;;;;;;;19.40;38.13;101214.38;5058716;28;20633;-70
2021/10/12 09:55:34;;;;;;;15.40;3.37;;;;;;;20.10;37.81;101212.97;5041713;28;20420;-70
2021/10/12 09:58:01;;;;;;;9.30;2.90;;;;;;;21.34;37.68;101202.84;5058773;28;20177;-65
2021/10/12 10:00:26;;;;;;;6.27;2.90;;;;;;;20.38;38.13;101207.91;5058621;28;20427;-71
2021/10/12 10:02:52;;;;;;;10.97;3.33;;;;;;;21.52;38.73;101201.44;5058700;28;20464;-72
2021/10/12 10:05:20;;;;;;;5.83;3.00;;;;;;;19.67;38.48;101222.66;5058640;28;20221;-72
2021/10/12 10:07:48;;;;;;;5.60;2.70;;;;;;;20.90;39.12;101212.88;5058717;28;20177;-71
2021/10/12 10:10:15;;;;;;;5.73;3.17;;;;;;;20.15;37.88;101214.63;5041537;28;20440;-70
2021/10/12 10:12:40;;;;;;;3.70;3.00;;;;;;;19.66;40.83;101219.16;5058458;28;20426;-70
2021/10/12 10:15:05;;;;;;;3.63;2.60;;;;;;;19.97;37.94;101217.66;5058337;28;20431;-71
2021/10/12 10:17:31;;;;;;;6.00;2.97;;;;;;;19.30;38.89;101223.41;5058750;28;20170;-71
2021/10/12 10:19:57;;;;;;;4.37;2.87;;;;;;;19.99;38.91;101213.22;5041101;28;20220;-61
2021/10/12 10:22:49;;;;;;;6.97;3.03;;;;;;;19.61;37.43;101213.09;5041136;28;20516;-61
2021/10/12 10:25:34;;;;;;;14.67;3.20;;;;;;;19.74;39.04;101211.09;5058372;28;20511;-59
2021/10/12 10:28:18;;;;;;;8.43;3.30;;;;;;;18.13;43.03;101218.22;5058297;28;20416;-61
2021/10/12 10:30:46;;;;;;;4.63;2.90;;;;;;;17.19;45.39;101217.59;5058051;28;20435;-61
2021/10/12 10:33:27;;;;;;;3.70;3.00;;;;;;;18.72;41.32;101205.00;5040991;28;20833;-61
2021/10/12 10:35:58;;;;;;;3.87;2.60;;;;;;;19.04;39.97;101211.56;5057975;28;20443;-61
2021/10/12 10:38:23;;;;;;;11.10;2.90;;;;;;;20.40;39.12;101207.88;5058134;28;20422;-62
2021/10/12 10:41:11;;;;;;;6.30;3.10;;;;;;;19.28;38.92;101212.88;5057997;28;20857;-60
2021/10/12 10:44:04;;;;;;;3.90;2.33;;;;;;;19.59;38.48;101203.44;5059588;28;20207;-62
2021/10/12 10:46:33;;;;;;;4.87;3.10;;;;;;;20.31;39.56;101211.59;5055722;28;20887;-61
2021/10/12 10:49:16;;;;;;;4.87;2.80;;;;;;;18.69;42.04;101213.00;5058792;28;20419;-61
2021/10/12 10:51:56;;;;;;;5.70;2.90;;;;;;;17.38;44.14;101220.91;5057610;28;20460;-62
2021/10/12 10:54:42;;;;;;;4.40;2.90;;;;;;;18.67;43.19;101218.31;5057938;28;20461;-60
2021/10/12 10:57:20;;;;;;;7.90;3.10;;;;;;;17.85;40.21;101214.19;5057826;28;20407;-69
2021/10/12 10:59:47;;;;;;;3.20;2.63;;;;;;;17.47;40.85;101204.13;5054830;28;20427;-68
2021/10/12 11:02:30;;;;;;;6.50;2.90;;;;;;;17.75;40.96;101209.94;5057798;28;20450;-68
2021/10/12 11:04:56;;;;;;;4.27;2.60;;;;;;;18.22;40.12;101204.06;5057816;28;20428;-67
2021/10/12 11:07:23;;;;;;;8.93;2.70;;;;;;;17.93;40.91;101213.25;5057663;28;20431;-69
2021/10/12 11:09:48;;;;;;;9.13;4.07;;;;;;;18.31;40.39;101214.47;5057949;28;20666;-69
2021/10/12 11:12:17;;;;;;;7.77;3.30;;;;;;;17.43;43.34;101211.19;5058481;28;20423;-68
2021/10/12 11:14:43;;;;;;;7.40;3.30;;;;;;;17.81;42.14;101214.25;5061745;28;20238;-68
2021/10/12 11:17:09;;;;;;;6.00;2.80;;;;;;;18.47;39.31;101210.69;5061346;28;20799;-69
2021/10/12 11:20:12;;;;;;;5.33;2.90;;;;;;;16.91;42.41;101206.44;5061940;28;20299;-70
2021/10/12 11:22:42;;;;;;;4.93;2.80;;;;;;;18.12;40.42;101208.59;5061751;28;20459;-68
2021/10/12 11:25:08;;;;;;;5.50;3.30;;;;;;;18.77;38.77;101199.66;5061797;28;20419;-70